Ayatollah Hashemi Rafsanjani International Airport

Airport
ICAO code: 
OIKK
IATA Code: 
KER
Summary
ICAO Region: 
MID
Territory: 
Location: 
Kerman, Kerman Province
Serving: 
Kerman
Elevation: 
5741 ft
Coordinates: 
Aerial View: 
30° 15' 31.823" N, 56° 57' 41.923" E
Metar
Observation
OIKK 261900Z 00000KT CAVOK 27/M02 Q1012 A2991
Station
Kerman
Date/Time
2022-06-26 19:00:00
Wind direction
Wind speed
00 kts
Lowest cloud amount
clouds and visibility OK
Temperature
27°C
Dew point
-2°C
Humidity
14%
QNH
1012 hPa
Weather condition
n/a

Also known as Kerman International Airport. The airport is 10km west of the city of Kerman, Iran.

Climatology

Cold semi-arid climate (Köppen climate classification Bsh).

Runways

Designator Length Width Surface Rops
5/23 2029 45 ASP Yes/Yes
16/34 3847 45 ASP Yes/Yes
Airport map: 
Aerial View: 

SKYbrary Partners:

Safety knowledge contributed by: